Latest Weather Observations for Cleve Airport

IDS60801

Issued at 9:35 pm CST Monday 21 April 2014 (issued every 30 minutes, with the page automatically refreshed every 10 minutes)

About weather observations | Map of weather stations | Latest weather observations for SA | Other Formats
Station Details ID: 018116 Name: CLEVE AERODROME Lat: -33.71 Lon: 136.50 Height: 175.0 m
Data from the previous 72 hours. | See also: Recent months at Cleve Airport
Date/Time
CST
Temp
°C
App
Temp
°C
Dew
Point
Rel
Hum
%
Delta-T
°C
Wind Press
QNH
hPa
Press
MSL
hPa
Rain
since 9 am
mm
Dir
 
Spd
km/h
Gust
km/h
Spd
kts
Gust
kts
21/09:30pm 18.8 15.3 5.6 42 6.5 W 13 19 7 10 1013.0 - 0.0
21/09:00pm 20.0 16.4 4.9 37 7.4 W 13 19 7 10 1012.9 1012.5 0.0
21/08:30pm 21.5 16.7 4.6 33 8.3 W 19 24 10 13 1012.1 - 0.0
21/08:00pm 24.9 20.6 5.2 28 10.1 NW 17 24 9 13 1011.5 - 0.0
21/07:30pm 24.9 20.6 5.2 28 10.1 WNW 17 22 9 12 1011.5 - 0.0
21/07:00pm 25.2 19.5 4.9 27 10.3 N 24 30 13 16 1010.6 - 0.0
21/06:30pm 26.2 20.9 5.2 26 10.8 N 22 32 12 17 1010.5 - 0.0
21/06:00pm 27.0 21.6 4.7 24 11.4 N 22 28 12 15 1010.5 1010.1 0.0
21/05:30pm 28.1 23.3 4.4 22 12.2 NNW 19 24 10 13 1010.4 - 0.0
21/05:00pm 29.1 21.5 3.1 19 13.1 NW 32 43 17 23 1010.2 - 0.0
21/04:30pm 30.1 23.5 4.0 19 13.5 NW 28 37 15 20 1010.2 - 0.0
21/04:21pm 29.8 22.2 2.9 18 13.6 NW 32 50 17 27 1010.2 - 0.0
21/04:00pm 30.4 22.9 4.2 19 13.6 NW 33 48 18 26 1010.2 - 0.0
21/03:30pm 31.2 23.3 4.1 18 14.1 NW 35 56 19 30 1010.2 - 0.0
21/03:06pm 30.4 22.9 4.2 19 13.6 NW 33 54 18 29 1010.3 - 0.0
21/03:00pm 30.5 22.2 4.3 19 13.6 NNW 37 50 20 27 1010.3 1009.9 0.0
21/02:46pm 30.5 22.2 4.3 19 13.6 NNW 37 56 20 30 1010.3 - 0.0
21/02:30pm 30.8 22.6 4.5 19 13.7 NW 37 54 20 29 1010.2 - 0.0
21/02:19pm 30.2 21.9 4.0 19 13.5 NW 37 57 20 31 1010.3 - 0.0
21/02:00pm 30.5 21.8 4.3 19 13.6 NW 39 54 21 29 1010.4 - 0.0
21/01:30pm 30.3 20.8 4.1 19 13.6 NW 43 70 23 38 1010.6 - 0.0
21/01:00pm 30.4 21.0 4.2 19 13.6 NW 43 61 23 33 1010.8 - 0.0
21/12:30pm 30.0 20.4 4.6 20 13.2 NW 44 63 24 34 1011.3 - 0.0
21/12:00pm 29.3 19.9 5.4 22 12.6 NW 44 69 24 37 1011.8 1011.5 0.0
21/11:30am 28.6 19.0 6.1 24 11.9 NW 46 67 25 36 1012.4 - 0.0
21/11:00am 27.7 17.6 5.9 25 11.5 NNW 48 69 26 37 1012.5 - 0.0
21/10:38am 27.1 18.0 6.0 26 11.1 NNW 43 65 23 35 1012.7 - 0.0
21/10:30am 27.3 18.7 6.7 27 10.9 NNW 41 56 22 30 1012.8 - 0.0
21/10:25am 27.2 19.0 6.6 27 10.9 NW 39 57 21 31 1012.9 - 0.0
21/10:00am 26.6 18.0 6.6 28 10.6 NNW 41 57 22 31 1013.1 - 0.0
21/09:50am 26.6 18.0 6.6 28 10.6 NNW 41 59 22 32 1013.1 - 0.0
21/09:30am 25.6 17.0 6.7 30 9.9 NNW 41 56 22 30 1013.3 - 0.0
21/09:14am 25.9 18.1 6.5 29 10.2 NNW 37 61 20 33 1013.4 - 0.0
21/09:00am 25.2 17.8 6.9 31 9.6 NNW 35 50 19 27 1013.3 1012.9 0.0
21/08:46am 24.6 16.8 6.8 32 9.3 N 37 56 20 30 1013.4 - 0.0
21/08:30am 23.7 15.6 6.9 34 8.8 N 39 50 21 27 1013.4 - 0.0
21/08:00am 21.9 14.6 7.3 39 7.6 N 35 44 19 24 1013.3 - 0.0
21/07:30am 20.8 14.2 7.8 43 6.8 N 32 43 17 23 1013.1 - 0.0
21/07:00am 20.5 13.3 7.8 44 6.6 N 35 44 19 24 1012.9 - 0.0
21/06:30am 20.7 12.5 8.0 44 6.6 N 41 50 22 27 1012.8 - 0.0
21/06:00am 20.7 12.5 8.0 44 6.7 N 41 52 22 28 1012.6 1012.2 0.0
21/05:30am 20.7 12.8 8.0 44 6.6 N 39 52 21 28 1012.7 - 0.0
21/05:00am 20.5 12.3 8.2 45 6.5 N 41 52 22 28 1012.8 - 0.0
21/04:34am 20.8 12.6 8.1 44 6.7 N 41 59 22 32 1012.6 - 0.0
21/04:30am 20.7 12.9 8.4 45 6.5 N 39 56 21 30 1012.7 - 0.0
21/04:00am 21.0 12.8 8.3 44 6.7 N 41 54 22 29 1012.6 - 0.0
21/03:30am 21.2 13.8 8.5 44 6.7 N 37 56 20 30 1012.7 - 0.0
21/03:28am 21.0 13.7 8.6 45 6.6 N 37 56 20 30 1012.7 - 0.0
21/03:00am 21.1 12.9 8.4 44 6.7 N 41 56 22 30 1012.9 1012.5 0.0
21/02:30am 20.8 13.8 8.4 45 6.5 N 35 46 19 25 1013.1 - 0.0
21/02:00am 20.7 12.8 8.0 44 6.6 N 39 52 21 28 1013.3 - 0.0
21/01:30am 20.5 12.3 8.2 45 6.5 N 41 56 22 30 1013.5 - 0.0
21/01:00am 20.0 11.8 8.4 47 6.1 N 41 56 22 30 1013.6 - 0.0
21/12:30am 20.4 11.9 8.7 47 6.2 N 43 56 23 30 1013.6 - 0.0
21/12:00am 19.8 12.3 7.9 46 6.2 NNE 37 50 20 27 1013.9 1013.5 0.0
 
Date/Time
CST
Temp
°C
App
Temp
°C
Dew
Point
Rel
Hum
%
Delta-T
°C
Wind Press
QNH
hPa
Press
MSL
hPa
Rain
since 9 am
mm
Dir
 
Spd
km/h
Gust
km/h
Spd
kts
Gust
kts
20/11:30pm 19.8 12.3 7.9 46 6.2 NNE 37 48 20 26 1014.4 - 0.0
20/11:00pm 19.8 13.0 7.9 46 6.2 NNE 33 43 18 23 1014.9 - 0.0
20/10:30pm 19.4 13.6 8.1 48 5.9 NNE 28 39 15 21 1015.3 - 0.0
20/10:29pm 19.3 13.5 8.0 48 5.9 NNE 28 39 15 21 1015.3 - 0.0
20/10:00pm 17.9 14.9 7.9 52 5.1 E 13 19 7 10 1016.0 - 0.0
20/09:30pm 18.5 14.5 8.2 51 5.3 NE 19 24 10 13 1016.1 - 0.0
20/09:00pm 18.7 15.0 8.1 50 5.5 NE 17 20 9 11 1016.3 1016.0 0.0
20/08:30pm 19.4 14.9 8.4 49 5.8 NE 22 30 12 16 1016.3 - 0.0
20/08:00pm 19.4 14.5 8.4 49 5.8 NNE 24 32 13 17 1016.2 - 0.0
20/07:30pm 17.3 14.8 8.4 56 4.6 NE 11 15 6 8 1016.5 - 0.0
20/07:00pm 17.6 14.8 8.5 55 4.7 E 13 15 7 8 1016.7 - 0.0
20/06:30pm 18.6 15.8 8.6 52 5.2 E 13 17 7 9 1016.6 - 0.0
20/06:00pm 19.9 16.7 8.6 48 5.9 E 15 22 8 12 1016.3 1016.0 0.0
20/05:00pm 21.8 17.0 8.7 43 7.0 E 24 32 13 17 1016.0 - 0.0
20/04:30pm 22.6 17.4 9.0 42 7.3 ESE 26 33 14 18 1016.0 - 0.0
20/04:00pm 23.6 18.5 9.2 40 7.8 ESE 26 33 14 18 1016.0 - 0.0
20/03:30pm 23.9 19.0 9.9 41 7.7 ESE 26 35 14 19 1015.9 - 0.0
20/03:00pm 24.7 20.0 9.4 38 8.4 ESE 24 32 13 17 1015.9 1015.5 0.0
20/02:30pm 25.5 20.9 9.7 37 8.8 SE 24 32 13 17 1015.8 - 0.0
20/02:00pm 24.9 20.6 9.2 37 8.6 ESE 22 35 12 19 1015.8 - 0.0
20/01:30pm 24.4 20.3 8.8 37 8.5 SE 20 28 11 15 1016.4 - 0.0
20/01:00pm 24.4 20.6 7.5 34 9.0 SE 17 24 9 13 1016.8 - 0.0
20/12:30pm 24.3 21.0 7.9 35 8.8 SE 15 22 8 12 1017.2 - 0.0
20/12:00pm 23.9 21.0 8.3 37 8.4 SE 13 20 7 11 1017.7 1017.4 0.0
20/11:30am 23.1 20.1 7.6 37 8.2 SE 13 19 7 10 1018.1 - 0.0
20/11:00am 22.9 19.8 7.4 37 8.1 ESE 13 20 7 11 1018.4 - 0.0
20/10:30am 21.8 19.1 7.2 39 7.6 E 11 15 6 8 1018.6 - 0.0
20/10:00am 20.1 17.4 7.5 44 6.5 E 11 15 6 8 1018.6 - 0.0
20/09:30am 18.9 17.0 7.4 47 5.9 ESE 7 11 4 6 1018.6 - 0.0
20/09:00am 18.0 15.0 7.7 51 5.3 ESE 13 17 7 9 1018.6 1018.2 0.0
20/08:30am 17.3 14.5 8.4 56 4.6 E 13 15 7 8 1018.5 - 0.0
20/08:00am 14.5 12.4 8.2 66 3.2 ENE 9 11 5 6 1018.4 - 0.0
20/07:30am 12.6 10.4 7.7 72 2.4 NNE 9 13 5 7 1018.1 - 0.0
20/07:00am 11.5 8.7 7.0 74 2.2 NNE 11 13 6 7 1017.9 - 0.0
20/06:30am 11.8 9.8 7.3 74 2.2 NNE 7 11 4 6 1017.7 - 0.0
20/06:00am 12.3 9.5 7.0 70 2.6 N 11 13 6 7 1017.6 1017.3 0.0
20/05:30am 11.4 8.1 6.5 72 2.3 N 13 17 7 9 1017.5 - 0.0
20/05:00am 12.5 8.5 6.8 68 2.8 NNW 17 19 9 10 1017.4 - 0.0
20/04:30am 12.1 8.1 6.6 69 2.6 N 17 19 9 10 1017.3 - 0.0
20/04:00am 12.3 8.7 6.6 68 2.7 NNW 15 17 8 9 1017.5 - 0.0
20/03:30am 11.9 8.3 6.6 70 2.5 NNW 15 17 8 9 1017.4 - 0.0
20/03:00am 12.0 8.3 6.5 69 2.6 NNW 15 17 8 9 1017.5 1017.2 0.0
20/02:30am 11.9 8.3 6.6 70 2.5 NNW 15 17 8 9 1017.6 - 0.0
20/02:00am 11.2 8.7 6.5 73 2.2 N 9 13 5 7 1017.7 - 0.0
20/01:30am 11.7 8.4 6.6 71 2.4 N 13 15 7 8 1017.7 - 0.0
20/01:00am 11.0 8.1 6.6 74 2.1 N 11 15 6 8 1017.9 - 0.0
20/12:30am 11.4 8.5 6.5 72 2.3 NNW 11 13 6 7 1017.9 - 0.0
20/12:00am 11.4 8.5 6.5 72 2.3 NNW 11 15 6 8 1018.2 1017.9 0.0
 
Date/Time
CST
Temp
°C
App
Temp
°C
Dew
Point
Rel
Hum
%
Delta-T
°C
Wind Press
QNH
hPa
Press
MSL
hPa
Rain
since 9 am
mm
Dir
 
Spd
km/h
Gust
km/h
Spd
kts
Gust
kts
19/11:30pm 10.9 8.4 6.5 74 2.1 N 9 11 5 6 1018.2 - 0.0
19/11:00pm 12.1 10.0 6.8 70 2.6 N 7 9 4 5 1018.5 - 0.0
19/10:30pm 11.4 8.5 6.5 72 2.3 N 11 13 6 7 1018.7 - 0.0
19/10:00pm 11.3 8.8 6.6 73 2.2 N 9 9 5 5 1018.7 - 0.0
19/09:30pm 12.5 10.1 6.8 68 2.8 N 9 11 5 6 1018.7 - 0.0
19/09:00pm 11.4 8.9 6.7 73 2.2 N 9 11 5 6 1018.6 1018.2 0.0
19/08:30pm 12.2 9.8 6.9 70 2.6 NNE 9 11 5 6 1018.6 - 0.0
19/08:00pm 11.9 9.8 6.8 71 2.5 ENE 7 9 4 5 1018.4 - 0.0
19/07:30pm 12.9 11.0 6.9 67 2.9 ESE 6 7 3 4 1018.4 - 0.0
19/07:00pm 13.7 11.3 7.0 64 3.3 E 9 13 5 7 1018.1 - 0.0
19/06:30pm 14.9 11.4 7.2 60 3.8 E 15 17 8 9 1017.9 - 0.0
19/06:00pm 15.8 11.6 7.3 57 4.2 E 19 26 10 14 1017.9 1017.6 0.0
19/05:30pm 16.9 12.1 7.5 54 4.8 E 22 30 12 16 1017.7 - 0.0
19/05:00pm 18.6 13.9 7.7 49 5.6 E 22 28 12 15 1017.6 - 0.0
19/04:30pm 19.5 15.1 7.6 46 6.1 ESE 20 24 11 13 1017.4 - 0.0
19/04:00pm 19.7 14.6 7.8 46 6.2 E 24 30 13 16 1017.5 - 0.0
19/03:30pm 19.9 17.7 7.9 46 6.2 SW 9 17 5 9 1017.9 - 0.0
19/03:00pm 20.4 16.4 8.1 45 6.4 WSW 19 22 10 12 1018.2 1017.9 0.0
19/02:30pm 20.2 16.9 8.2 46 6.3 WSW 15 30 8 16 1018.2 - 0.0
19/02:00pm 19.9 17.3 7.9 46 6.2 W 11 17 6 9 1018.5 - 0.0
19/01:30pm 19.7 16.8 8.1 47 6.0 W 13 19 7 10 1019.0 - 0.0
19/01:00pm 19.3 16.7 7.7 47 6.0 W 11 17 6 9 1019.6 - 0.0
19/12:30pm 19.7 17.6 8.1 47 6.0 WSW 9 20 5 11 1020.1 - 0.0
19/12:00pm 18.4 16.1 7.5 49 5.6 NW 9 15 5 8 1020.9 1020.5 0.0
19/11:30am 17.7 15.7 7.2 50 5.3 ENE 7 17 4 9 1021.4 - 0.0
19/11:00am 17.4 15.4 7.2 51 5.1 NE 7 13 4 7 1021.8 - 0.0
19/10:30am 16.6 13.9 7.3 54 4.7 NNE 11 17 6 9 1022.1 - 0.0
19/10:00am 16.0 13.6 7.0 55 4.5 ENE 9 15 5 8 1022.4 - 0.0
19/09:30am 15.6 12.8 7.1 57 4.2 NE 11 15 6 8 1022.7 - 0.0
19/07:00am 13.5 11.3 7.9 69 2.8 NE 9 11 5 6 1022.1 - 0.0
19/06:30am 13.3 10.4 8.0 70 2.6 NE 13 15 7 8 1021.9 - 0.0
19/06:00am 13.5 10.1 7.7 68 2.9 ENE 15 20 8 11 1021.8 1021.5 0.0
19/05:30am 13.2 10.2 7.6 69 2.8 NE 13 17 7 9 1021.8 - 0.0
19/05:00am 13.3 9.9 7.7 69 2.8 NE 15 20 8 11 1021.6 - 0.0
19/04:30am 13.2 9.6 8.3 72 2.5 ENE 17 20 9 11 1021.4 - 0.0
19/04:00am 13.5 10.4 8.8 73 2.4 ENE 15 19 8 10 1021.7 - 0.0
19/03:30am 13.4 10.4 9.3 76 2.1 ENE 15 17 8 9 1021.8 - 0.0
19/03:00am 13.2 10.6 9.3 77 2.0 ENE 13 17 7 9 1021.8 1021.5 0.0
19/02:30am 12.7 10.6 9.9 83 1.4 NE 11 15 6 8 1022.2 - 0.0
19/02:00am 11.4 9.2 9.5 88 1.0 NNE 11 13 6 7 1022.3 - 0.0
19/01:30am 10.4 9.0 8.8 90 0.8 NNE 6 7 3 4 1022.4 - 0.0
19/01:00am 10.3 8.4 8.9 91 0.7 NNE 9 11 5 6 1022.5 - 0.0
19/12:30am 10.4 8.6 8.0 85 1.2 NNE 7 9 4 5 1022.6 - 0.0
19/12:00am 10.8 9.2 8.6 86 1.1 NNE 7 9 4 5 1022.6 1022.3 0.0
 
Date/Time
CST
Temp
°C
App
Temp
°C
Dew
Point
Rel
Hum
%
Delta-T
°C
Wind Press
QNH
hPa
Press
MSL
hPa
Rain
since 9 am
mm
Dir
 
Spd
km/h
Gust
km/h
Spd
kts
Gust
kts
18/11:30pm 10.5 9.4 8.3 86 1.1 NNE 4 6 2 3 1022.7 - 0.0
18/11:00pm 10.4 8.8 8.2 86 1.1 NNE 6 7 3 4 1023.0 - 0.0
18/10:30pm 10.3 9.1 7.9 85 1.2 NNE 4 6 2 3 1023.3 - 0.0
18/10:00pm 10.7 10.2 7.9 83 1.4 CALM 0 0 0 0 1023.6 - 0.0

Other Formats:

Comma delimited format used in spreadsheet applications
http://www.bom.gov.au/fwo/IDS60801/IDS60801.94662.axf

JavaScript Object Notation format (JSON) in row-major order
http://www.bom.gov.au/fwo/IDS60801/IDS60801.94662.json